Aérodrome :
LOGIN :

S'inscrire | Disclaimer

   EN    FR    IT 

 










Légende :    VFR   VFR Marginal   IFR   IFR Intensif   IFR Très Intensif
Visi : 
Plafond : 
>= 8 km
>= 3000ft
5 à 8 km
1000 à 3000 ft
1500m à 5 km
500 à 1000 ft
800 à 1500m
200 à 500 ft
< 800m
< 200 ft
Symboles :   Orages  Brouillard  Fortes neiges  Fortes précipitations  Vent > 20 kt
SIGMETs :   Divers  Orages  Givrage  Turbulence  Onde Orograph.  Cendres Volcan.






- Altitude de l'aérodrome : 375 ft
- Code IATA : MST


EHBK - Maastricht Aachen

DERNIER METAR :
  • 190855Z AUTO 23005KT 170V330 9999 SCT021 23/16 Q1015 NOSIG

METARs EXPIRÉS :
  • 190825Z AUTO 25006KT 190V320 9999 NSC 22/16 Q1015 NOSIG
  • 190755Z AUTO 23007KT 190V290 9999 FEW019 21/16 Q1015 NOSIG
  • 190725Z AUTO 23009KT 200V270 9999 NSC 21/15 Q1015 NOSIG
  • 190655Z AUTO 22010KT 190V260 9999 FEW017 20/16 Q1015 NOSIG
  • 190625Z AUTO 23011KT 9999 BKN015 20/16 Q1015 NOSIG

TAF TAF EHBK
Valide du 19 à 06h jusqu'au 20 à 12h UTC


190517Z 1906/2012 25010KT 9999 SCT015
PROB30
TEMPO 1906/1908 BKN012
BECMG 1915/1918 04010KT
TEMPO 1921/2003 4000 SHRA TSRA BKN060CB
PROB40
TEMPO 1921/2002 20020G35KT 1200 +TSRAGR BKN050CB
PROB30
TEMPO 2002/2008 6000 BKN008
BECMG 2003/2006 23012KT



MET'MAP, la Météo Aéronautique d'un coup d'oeil ! - Copyright ORBIFLY Décembre 2007 - Disclaimer

ORBIFLY MET'MAP TEAM :

Programmation & Développement : Alexandra Zaïnal
Sur une idée originale de : Baudouin d'Aumeries
Assistance à la programmation : Marc-Olivier Méhu
Soutien technique & logistique : Manuel Goepfert

Contact : metmap@orbifly.com




SOURCES & CREDITS :

   NOAA